Home   Weather   France   Bordeaux   Past weeks
Flag for France

Past Weather in Bordeaux, Nouvelle-Aquitaine, France — July 2022

Currently: 43 °F. Passing clouds. (Weather station: Bordeaux / Merignac, France). See more current weather

July 2022 Weather in Bordeaux — Graph

°F

High & Low Weather Summary for July 2022

 TemperatureHumidityPressure
High104 °F (Jul 18, 4:30 pm)100% (Jul 1, 7:00 am)30.39 "Hg (Jul 1, 7:00 am)
Low50 °F (Jul 1, 6:30 am)14% (Jul 17, 4:30 pm)29.86 "Hg (Jul 18, 8:00 pm)
Average76 °F56%30.12 "Hg
* Reported Jul 1 12:00 am — Jul 31 11:00 pm, Bordeaux. Weather by CustomWeather, © 2024

Note: Actual official high and low records may vary slightly from our data, if they occured in-between our weather recording intervals... More about our weather records

Bordeaux Weather History for July 1, 2022

Scroll right to see more
 ConditionsComfort  
Time TempWeatherWind HumidityBarometerVisibility
12:00 am
Fri, Jul 1
55 °FClear.3 mph88%30.12 "Hg10 mi
12:30 am55 °FClear.2 mph88%30.12 "HgN/A
1:00 am55 °FClear.1 mph88%30.15 "HgN/A
1:30 am54 °FClear.No wind94%30.15 "Hg10 mi
3:00 am54 °FClear.2 mph88%30.12 "Hg10 mi
3:30 am52 °FClear.No wind94%30.12 "Hg10 mi
4:00 am52 °FClear.No wind94%30.12 "Hg10 mi
4:30 am52 °FClear.No wind94%30.12 "Hg10 mi
5:00 am52 °FClear.No wind94%30.12 "Hg10 mi
5:30 am52 °FClear.1 mph94%30.12 "Hg10 mi
6:00 am52 °FClear.1 mph94%30.15 "Hg10 mi
6:30 am50 °FSunny.No wind94%30.15 "Hg10 mi
7:00 am52 °FSunny.3 mph100%30.15 "Hg10 mi
8:00 am57 °FSunny.No wind88%30.15 "Hg10 mi
8:30 am59 °FSunny.3 mph82%30.15 "Hg10 mi
9:00 am63 °FSunny.3 mph73%30.15 "Hg10 mi
10:30 am66 °FPassing clouds.3 mph60%30.15 "HgN/A
11:00 am66 °FPartly sunny.3 mph60%30.15 "HgN/A
12:00 pm68 °FScattered clouds.5 mph56%30.15 "HgN/A
1:00 pm70 °FBroken clouds.5 mph50%30.15 "HgN/A
2:00 pm70 °FBroken clouds.3 mph50%30.15 "HgN/A
2:30 pm72 °FPassing clouds.5 mph47%30.15 "HgN/A
3:00 pm72 °FPartly sunny.3 mph50%30.15 "HgN/A
3:30 pm72 °FPassing clouds.6 mph47%30.15 "HgN/A
4:00 pm73 °FPassing clouds.3 mph44%30.15 "HgN/A
5:00 pm75 °FSunny.3 mph41%30.12 "Hg10 mi
5:30 pm75 °FSunny.3 mph41%30.12 "Hg10 mi
6:00 pm73 °FPassing clouds.8 mph41%30.12 "HgN/A
7:00 pm73 °FPassing clouds.9 mph44%30.12 "HgN/A
8:00 pm73 °FPassing clouds.7 mph44%30.12 "HgN/A
8:30 pm73 °FPassing clouds.8 mph44%30.12 "HgN/A
9:00 pm72 °FPassing clouds.9 mph44%30.12 "HgN/A
9:30 pm70 °FPassing clouds.7 mph50%30.12 "HgN/A
10:00 pm68 °FClear.6 mph53%30.12 "Hg10 mi
10:30 pm66 °FPassing clouds.5 mph56%30.15 "HgN/A
11:00 pm64 °FClear.3 mph68%30.15 "Hg10 mi
Weather by CustomWeather, © 2024

See weather overview